sensor_id;sensor_type;location;lat;lon;timestamp;temperature;humidity
78619;DHT22;67941;52.506;5.470;2023-05-24T00:00:07;9.80;63.40
78619;DHT22;67941;52.506;5.470;2023-05-24T00:02:37;9.80;63.50
78619;DHT22;67941;52.506;5.470;2023-05-24T00:05:09;9.80;63.60
78619;DHT22;67941;52.506;5.470;2023-05-24T00:07:39;9.80;63.70
78619;DHT22;67941;52.506;5.470;2023-05-24T00:10:10;9.80;63.90
78619;DHT22;67941;52.506;5.470;2023-05-24T00:12:39;9.80;63.90
78619;DHT22;67941;52.506;5.470;2023-05-24T00:15:08;9.80;63.90
78619;DHT22;67941;52.506;5.470;2023-05-24T00:17:37;9.80;64.00
78619;DHT22;67941;52.506;5.470;2023-05-24T00:20:11;9.80;64.10
78619;DHT22;67941;52.506;5.470;2023-05-24T00:22:40;9.80;64.20
78619;DHT22;67941;52.506;5.470;2023-05-24T00:25:09;9.80;64.20
78619;DHT22;67941;52.506;5.470;2023-05-24T00:27:37;9.80;64.30
78619;DHT22;67941;52.506;5.470;2023-05-24T00:30:07;9.80;64.30
78619;DHT22;67941;52.506;5.470;2023-05-24T00:32:36;9.80;64.40
78619;DHT22;67941;52.506;5.470;2023-05-24T00:35:05;9.80;64.50
78619;DHT22;67941;52.506;5.470;2023-05-24T00:37:37;9.80;64.60
78619;DHT22;67941;52.506;5.470;2023-05-24T00:40:10;9.80;64.60
78619;DHT22;67941;52.506;5.470;2023-05-24T00:42:39;9.80;64.70
78619;DHT22;67941;52.506;5.470;2023-05-24T00:45:09;9.80;64.70
78619;DHT22;67941;52.506;5.470;2023-05-24T00:47:38;9.80;64.80
78619;DHT22;67941;52.506;5.470;2023-05-24T00:50:09;9.80;64.90
78619;DHT22;67941;52.506;5.470;2023-05-24T00:52:45;9.80;64.90
78619;DHT22;67941;52.506;5.470;2023-05-24T00:55:15;9.80;65.00
78619;DHT22;67941;52.506;5.470;2023-05-24T00:57:44;9.80;65.00
78619;DHT22;67941;52.506;5.470;2023-05-24T01:00:14;9.80;65.00
78619;DHT22;67941;52.506;5.470;2023-05-24T01:02:43;9.80;65.10
78619;DHT22;67941;52.506;5.470;2023-05-24T01:05:14;9.70;65.20
78619;DHT22;67941;52.506;5.470;2023-05-24T01:07:53;9.70;65.20
78619;DHT22;67941;52.506;5.470;2023-05-24T01:10:31;9.70;65.30
78619;DHT22;67941;52.506;5.470;2023-05-24T01:13:09;9.70;65.40
78619;DHT22;67941;52.506;5.470;2023-05-24T01:15:44;9.80;65.40
78619;DHT22;67941;52.506;5.470;2023-05-24T01:18:19;9.80;65.40
78619;DHT22;67941;52.506;5.470;2023-05-24T01:21:00;9.80;65.50
78619;DHT22;67941;52.506;5.470;2023-05-24T01:23:43;9.80;65.50
78619;DHT22;67941;52.506;5.470;2023-05-24T01:26:19;9.80;65.60
78619;DHT22;67941;52.506;5.470;2023-05-24T01:28:55;9.80;65.60
78619;DHT22;67941;52.506;5.470;2023-05-24T01:31:24;9.70;65.60
78619;DHT22;67941;52.506;5.470;2023-05-24T01:33:53;9.70;65.70
78619;DHT22;67941;52.506;5.470;2023-05-24T01:36:22;9.70;65.80
78619;DHT22;67941;52.506;5.470;2023-05-24T01:38:51;9.70;65.80
78619;DHT22;67941;52.506;5.470;2023-05-24T01:41:33;9.70;65.80
78619;DHT22;67941;52.506;5.470;2023-05-24T01:44:12;9.70;65.90
78619;DHT22;67941;52.506;5.470;2023-05-24T01:46:46;9.60;66.00
78619;DHT22;67941;52.506;5.470;2023-05-24T01:49:21;9.60;66.00
78619;DHT22;67941;52.506;5.470;2023-05-24T01:51:53;9.60;66.10
78619;DHT22;67941;52.506;5.470;2023-05-24T01:54:25;9.60;66.10
78619;DHT22;67941;52.506;5.470;2023-05-24T01:56:56;9.60;66.20
78619;DHT22;67941;52.506;5.470;2023-05-24T02:02:13;9.60;66.20
78619;DHT22;67941;52.506;5.470;2023-05-24T02:04:42;9.60;66.20
78619;DHT22;67941;52.506;5.470;2023-05-24T02:07:11;9.60;66.30
78619;DHT22;67941;52.506;5.470;2023-05-24T02:09:40;9.60;66.30
78619;DHT22;67941;52.506;5.470;2023-05-24T02:12:10;9.60;66.40
78619;DHT22;67941;52.506;5.470;2023-05-24T02:14:42;9.50;66.50
78619;DHT22;67941;52.506;5.470;2023-05-24T02:17:10;9.50;66.50
78619;DHT22;67941;52.506;5.470;2023-05-24T02:19:39;9.50;66.50
78619;DHT22;67941;52.506;5.470;2023-05-24T02:22:08;9.50;66.60
78619;DHT22;67941;52.506;5.470;2023-05-24T02:24:37;9.50;66.60
78619;DHT22;67941;52.506;5.470;2023-05-24T02:27:06;9.50;66.70
78619;DHT22;67941;52.506;5.470;2023-05-24T02:29:35;9.50;66.70
78619;DHT22;67941;52.506;5.470;2023-05-24T02:32:09;9.50;66.80
78619;DHT22;67941;52.506;5.470;2023-05-24T02:34:56;9.50;66.90
78619;DHT22;67941;52.506;5.470;2023-05-24T02:37:26;9.50;66.90
78619;DHT22;67941;52.506;5.470;2023-05-24T02:39:55;9.50;67.00
78619;DHT22;67941;52.506;5.470;2023-05-24T02:42:24;9.50;67.10
78619;DHT22;67941;52.506;5.470;2023-05-24T02:44:53;9.50;67.10
78619;DHT22;67941;52.506;5.470;2023-05-24T02:47:25;9.50;67.10
78619;DHT22;67941;52.506;5.470;2023-05-24T02:49:54;9.50;67.10
78619;DHT22;67941;52.506;5.470;2023-05-24T02:52:23;9.50;67.10
78619;DHT22;67941;52.506;5.470;2023-05-24T02:54:52;9.50;67.20
78619;DHT22;67941;52.506;5.470;2023-05-24T02:57:21;9.50;67.20
78619;DHT22;67941;52.506;5.470;2023-05-24T02:59:50;9.50;67.20
78619;DHT22;67941;52.506;5.470;2023-05-24T03:02:19;9.50;67.20
78619;DHT22;67941;52.506;5.470;2023-05-24T03:04:50;9.50;67.30
78619;DHT22;67941;52.506;5.470;2023-05-24T03:07:19;9.50;67.30
78619;DHT22;67941;52.506;5.470;2023-05-24T03:09:48;9.50;67.40
78619;DHT22;67941;52.506;5.470;2023-05-24T03:12:17;9.50;67.40
78619;DHT22;67941;52.506;5.470;2023-05-24T03:14:46;9.50;67.50
78619;DHT22;67941;52.506;5.470;2023-05-24T03:17:15;9.50;67.60
78619;DHT22;67941;52.506;5.470;2023-05-24T03:19:44;9.50;67.70
78619;DHT22;67941;52.506;5.470;2023-05-24T03:22:15;9.50;67.70
78619;DHT22;67941;52.506;5.470;2023-05-24T03:24:44;9.50;67.70
78619;DHT22;67941;52.506;5.470;2023-05-24T03:27:13;9.60;67.70
78619;DHT22;67941;52.506;5.470;2023-05-24T03:29:42;9.60;67.70
78619;DHT22;67941;52.506;5.470;2023-05-24T03:32:11;9.60;67.80
78619;DHT22;67941;52.506;5.470;2023-05-24T03:34:40;9.60;67.90
78619;DHT22;67941;52.506;5.470;2023-05-24T03:37:09;9.60;68.00
78619;DHT22;67941;52.506;5.470;2023-05-24T03:39:42;9.60;68.00
78619;DHT22;67941;52.506;5.470;2023-05-24T03:42:27;9.70;67.90
78619;DHT22;67941;52.506;5.470;2023-05-24T03:44:56;9.70;67.90
78619;DHT22;67941;52.506;5.470;2023-05-24T03:47:24;9.70;67.90
78619;DHT22;67941;52.506;5.470;2023-05-24T03:49:53;9.70;68.00
78619;DHT22;67941;52.506;5.470;2023-05-24T03:52:23;9.70;68.00
78619;DHT22;67941;52.506;5.470;2023-05-24T03:54:54;9.70;68.00
78619;DHT22;67941;52.506;5.470;2023-05-24T03:57:23;9.70;68.20
78619;DHT22;67941;52.506;5.470;2023-05-24T03:59:52;9.70;68.10
78619;DHT22;67941;52.506;5.470;2023-05-24T04:02:21;9.70;68.20
78619;DHT22;67941;52.506;5.470;2023-05-24T04:04:50;9.70;68.20
78619;DHT22;67941;52.506;5.470;2023-05-24T04:07:19;9.70;68.20
78619;DHT22;67941;52.506;5.470;2023-05-24T04:09:50;9.80;68.20
78619;DHT22;67941;52.506;5.470;2023-05-24T04:12:21;9.80;68.20
78619;DHT22;67941;52.506;5.470;2023-05-24T04:14:51;9.80;68.20
78619;DHT22;67941;52.506;5.470;2023-05-24T04:17:20;9.70;68.20
78619;DHT22;67941;52.506;5.470;2023-05-24T04:19:49;9.80;68.30
78619;DHT22;67941;52.506;5.470;2023-05-24T04:22:18;9.80;68.30
78619;DHT22;67941;52.506;5.470;2023-05-24T04:24:47;9.80;68.40
78619;DHT22;67941;52.506;5.470;2023-05-24T04:27:16;9.90;68.40
78619;DHT22;67941;52.506;5.470;2023-05-24T04:29:48;10.00;68.40
78619;DHT22;67941;52.506;5.470;2023-05-24T04:32:18;10.00;68.50
78619;DHT22;67941;52.506;5.470;2023-05-24T04:34:48;10.00;68.50
78619;DHT22;67941;52.506;5.470;2023-05-24T04:37:18;10.00;68.50
78619;DHT22;67941;52.506;5.470;2023-05-24T04:39:47;10.10;68.50
78619;DHT22;67941;52.506;5.470;2023-05-24T04:42:16;10.20;68.70
78619;DHT22;67941;52.506;5.470;2023-05-24T04:44:47;10.20;68.60
78619;DHT22;67941;52.506;5.470;2023-05-24T04:47:16;10.30;68.70
78619;DHT22;67941;52.506;5.470;2023-05-24T04:49:45;10.40;68.70
78619;DHT22;67941;52.506;5.470;2023-05-24T04:52:14;10.50;68.70
78619;DHT22;67941;52.506;5.470;2023-05-24T04:54:43;10.60;68.70
78619;DHT22;67941;52.506;5.470;2023-05-24T04:57:14;10.70;68.70
78619;DHT22;67941;52.506;5.470;2023-05-24T04:59:43;10.80;68.70
78619;DHT22;67941;52.506;5.470;2023-05-24T05:02:15;10.90;68.60
78619;DHT22;67941;52.506;5.470;2023-05-24T05:04:44;11.00;68.60
78619;DHT22;67941;52.506;5.470;2023-05-24T05:07:13;11.10;68.70
78619;DHT22;67941;52.506;5.470;2023-05-24T05:09:42;11.10;68.70
78619;DHT22;67941;52.506;5.470;2023-05-24T05:12:11;11.30;68.70
78619;DHT22;67941;52.506;5.470;2023-05-24T05:14:40;11.40;68.50
78619;DHT22;67941;52.506;5.470;2023-05-24T05:17:09;11.50;68.50
78619;DHT22;67941;52.506;5.470;2023-05-24T05:19:41;11.50;68.50
78619;DHT22;67941;52.506;5.470;2023-05-24T05:22:11;11.50;68.50
78619;DHT22;67941;52.506;5.470;2023-05-24T05:24:40;11.50;68.50
78619;DHT22;67941;52.506;5.470;2023-05-24T05:27:09;11.50;68.70
78619;DHT22;67941;52.506;5.470;2023-05-24T05:29:37;11.80;68.70
78619;DHT22;67941;52.506;5.470;2023-05-24T05:32:07;11.90;68.50
78619;DHT22;67941;52.506;5.470;2023-05-24T05:34:36;12.00;68.20
78619;DHT22;67941;52.506;5.470;2023-05-24T05:37:07;12.00;68.20
78619;DHT22;67941;52.506;5.470;2023-05-24T05:39:37;12.10;68.60
78619;DHT22;67941;52.506;5.470;2023-05-24T05:42:06;12.50;68.40
78619;DHT22;67941;52.506;5.470;2023-05-24T05:44:35;12.70;67.90
78619;DHT22;67941;52.506;5.470;2023-05-24T05:47:04;12.70;67.60
78619;DHT22;67941;52.506;5.470;2023-05-24T05:49:34;12.60;67.60
78619;DHT22;67941;52.506;5.470;2023-05-24T05:52:06;12.50;67.80
78619;DHT22;67941;52.506;5.470;2023-05-24T05:54:36;12.50;68.30
78619;DHT22;67941;52.506;5.470;2023-05-24T05:57:05;12.50;68.60
78619;DHT22;67941;52.506;5.470;2023-05-24T05:59:36;12.70;68.60
78619;DHT22;67941;52.506;5.470;2023-05-24T06:02:05;12.80;68.30
78619;DHT22;67941;52.506;5.470;2023-05-24T06:04:34;12.70;68.20
78619;DHT22;67941;52.506;5.470;2023-05-24T06:07:04;12.70;68.40
78619;DHT22;67941;52.506;5.470;2023-05-24T06:09:35;12.70;68.60
78619;DHT22;67941;52.506;5.470;2023-05-24T06:12:05;12.70;68.70
78619;DHT22;67941;52.506;5.470;2023-05-24T06:14:34;12.80;68.60
78619;DHT22;67941;52.506;5.470;2023-05-24T06:17:18;12.80;68.50
78619;DHT22;67941;52.506;5.470;2023-05-24T06:19:49;12.90;68.50
78619;DHT22;67941;52.506;5.470;2023-05-24T06:22:18;12.90;68.40
78619;DHT22;67941;52.506;5.470;2023-05-24T06:24:50;12.90;68.20
78619;DHT22;67941;52.506;5.470;2023-05-24T06:27:19;12.90;68.10
78619;DHT22;67941;52.506;5.470;2023-05-24T06:29:47;12.90;68.10
78619;DHT22;67941;52.506;5.470;2023-05-24T06:32:16;12.90;68.20
78619;DHT22;67941;52.506;5.470;2023-05-24T06:34:48;12.90;68.20
78619;DHT22;67941;52.506;5.470;2023-05-24T06:37:17;13.00;68.20
78619;DHT22;67941;52.506;5.470;2023-05-24T06:39:52;13.00;68.10
78619;DHT22;67941;52.506;5.470;2023-05-24T06:42:21;13.00;68.00
78619;DHT22;67941;52.506;5.470;2023-05-24T06:44:50;13.00;68.10
78619;DHT22;67941;52.506;5.470;2023-05-24T06:47:20;13.10;68.30
78619;DHT22;67941;52.506;5.470;2023-05-24T06:49:50;13.10;68.20
78619;DHT22;67941;52.506;5.470;2023-05-24T06:52:18;13.30;68.20
78619;DHT22;67941;52.506;5.470;2023-05-24T06:54:48;13.50;68.00
78619;DHT22;67941;52.506;5.470;2023-05-24T06:57:20;13.60;67.90
78619;DHT22;67941;52.506;5.470;2023-05-24T06:59:49;13.70;67.80
78619;DHT22;67941;52.506;5.470;2023-05-24T07:02:18;13.70;67.70
78619;DHT22;67941;52.506;5.470;2023-05-24T07:04:51;13.70;67.70
78619;DHT22;67941;52.506;5.470;2023-05-24T07:07:20;13.90;67.70
78619;DHT22;67941;52.506;5.470;2023-05-24T07:09:48;13.90;67.70
78619;DHT22;67941;52.506;5.470;2023-05-24T07:12:20;14.00;67.70
78619;DHT22;67941;52.506;5.470;2023-05-24T07:14:49;14.10;67.70
78619;DHT22;67941;52.506;5.470;2023-05-24T07:17:18;14.20;67.60
78619;DHT22;67941;52.506;5.470;2023-05-24T07:19:46;14.40;67.50
78619;DHT22;67941;52.506;5.470;2023-05-24T07:22:16;14.50;67.50
78619;DHT22;67941;52.506;5.470;2023-05-24T07:24:45;14.60;67.40
78619;DHT22;67941;52.506;5.470;2023-05-24T07:27:13;14.70;67.40
78619;DHT22;67941;52.506;5.470;2023-05-24T07:29:45;14.80;67.00
78619;DHT22;67941;52.506;5.470;2023-05-24T07:32:14;14.80;66.80
78619;DHT22;67941;52.506;5.470;2023-05-24T07:34:44;14.80;66.80
78619;DHT22;67941;52.506;5.470;2023-05-24T07:37:12;14.80;66.70
78619;DHT22;67941;52.506;5.470;2023-05-24T07:39:42;14.80;66.60
78619;DHT22;67941;52.506;5.470;2023-05-24T07:42:11;14.70;66.40
78619;DHT22;67941;52.506;5.470;2023-05-24T07:44:40;14.70;66.30
78619;DHT22;67941;52.506;5.470;2023-05-24T07:47:11;14.60;66.20
78619;DHT22;67941;52.506;5.470;2023-05-24T07:49:40;14.60;66.20
78619;DHT22;67941;52.506;5.470;2023-05-24T07:52:09;14.60;66.20
78619;DHT22;67941;52.506;5.470;2023-05-24T07:54:38;14.60;66.20
78619;DHT22;67941;52.506;5.470;2023-05-24T07:57:07;14.70;66.20
78619;DHT22;67941;52.506;5.470;2023-05-24T07:59:35;14.70;66.00
78619;DHT22;67941;52.506;5.470;2023-05-24T08:02:04;14.80;65.90
78619;DHT22;67941;52.506;5.470;2023-05-24T08:04:39;14.80;65.80
78619;DHT22;67941;52.506;5.470;2023-05-24T08:07:08;14.70;65.50
78619;DHT22;67941;52.506;5.470;2023-05-24T08:09:37;14.70;65.60
78619;DHT22;67941;52.506;5.470;2023-05-24T08:12:07;14.80;65.60
78619;DHT22;67941;52.506;5.470;2023-05-24T08:14:35;14.90;65.60
78619;DHT22;67941;52.506;5.470;2023-05-24T08:17:04;15.00;65.70
78619;DHT22;67941;52.506;5.470;2023-05-24T08:19:33;15.30;65.40
78619;DHT22;67941;52.506;5.470;2023-05-24T08:22:04;15.40;65.10
78619;DHT22;67941;52.506;5.470;2023-05-24T08:24:34;15.40;64.80
78619;DHT22;67941;52.506;5.470;2023-05-24T08:27:03;15.30;64.60
78619;DHT22;67941;52.506;5.470;2023-05-24T08:29:32;15.20;64.60
78619;DHT22;67941;52.506;5.470;2023-05-24T08:32:01;15.00;64.70
78619;DHT22;67941;52.506;5.470;2023-05-24T08:34:34;15.00;64.70
78619;DHT22;67941;52.506;5.470;2023-05-24T08:37:06;14.90;64.70
78619;DHT22;67941;52.506;5.470;2023-05-24T08:39:35;14.80;64.60
78619;DHT22;67941;52.506;5.470;2023-05-24T08:42:06;14.70;64.60
78619;DHT22;67941;52.506;5.470;2023-05-24T08:44:40;14.60;64.60
78619;DHT22;67941;52.506;5.470;2023-05-24T08:47:09;14.70;64.60
78619;DHT22;67941;52.506;5.470;2023-05-24T08:49:40;14.70;64.50
78619;DHT22;67941;52.506;5.470;2023-05-24T08:52:12;14.60;64.50
78619;DHT22;67941;52.506;5.470;2023-05-24T08:54:57;14.70;64.70
78619;DHT22;67941;52.506;5.470;2023-05-24T08:57:26;14.80;64.60
78619;DHT22;67941;52.506;5.470;2023-05-24T08:59:55;14.90;64.40
78619;DHT22;67941;52.506;5.470;2023-05-24T09:02:25;14.90;64.30
78619;DHT22;67941;52.506;5.470;2023-05-24T09:04:55;15.00;64.30
78619;DHT22;67941;52.506;5.470;2023-05-24T09:07:27;15.00;64.20
78619;DHT22;67941;52.506;5.470;2023-05-24T09:09:57;15.20;64.20
78619;DHT22;67941;52.506;5.470;2023-05-24T09:12:30;15.40;64.10
78619;DHT22;67941;52.506;5.470;2023-05-24T09:15:01;15.50;63.70
78619;DHT22;67941;52.506;5.470;2023-05-24T09:17:30;15.50;63.50
78619;DHT22;67941;52.506;5.470;2023-05-24T09:19:59;15.50;63.50
78619;DHT22;67941;52.506;5.470;2023-05-24T09:22:34;15.40;63.60
78619;DHT22;67941;52.506;5.470;2023-05-24T09:25:04;15.50;63.70
78619;DHT22;67941;52.506;5.470;2023-05-24T09:27:34;15.60;63.50
78619;DHT22;67941;52.506;5.470;2023-05-24T09:30:09;15.60;63.40
78619;DHT22;67941;52.506;5.470;2023-05-24T09:32:38;15.40;63.30
78619;DHT22;67941;52.506;5.470;2023-05-24T09:35:08;15.40;63.50
78619;DHT22;67941;52.506;5.470;2023-05-24T09:37:39;15.50;63.50
78619;DHT22;67941;52.506;5.470;2023-05-24T09:40:17;15.60;63.30
78619;DHT22;67941;52.506;5.470;2023-05-24T09:42:46;15.80;63.20
78619;DHT22;67941;52.506;5.470;2023-05-24T09:45:16;15.90;63.10
78619;DHT22;67941;52.506;5.470;2023-05-24T09:47:45;16.00;62.90
78619;DHT22;67941;52.506;5.470;2023-05-24T09:50:15;16.00;62.80
78619;DHT22;67941;52.506;5.470;2023-05-24T09:52:47;16.10;62.60
78619;DHT22;67941;52.506;5.470;2023-05-24T09:55:17;16.20;62.50
78619;DHT22;67941;52.506;5.470;2023-05-24T09:57:50;16.20;62.40
78619;DHT22;67941;52.506;5.470;2023-05-24T10:00:23;16.30;62.30
78619;DHT22;67941;52.506;5.470;2023-05-24T10:03:01;16.30;62.30
78619;DHT22;67941;52.506;5.470;2023-05-24T10:05:32;16.40;62.30
78619;DHT22;67941;52.506;5.470;2023-05-24T10:08:04;16.40;62.40
78619;DHT22;67941;52.506;5.470;2023-05-24T10:10:34;16.30;62.20
78619;DHT22;67941;52.506;5.470;2023-05-24T10:13:03;16.30;62.20
78619;DHT22;67941;52.506;5.470;2023-05-24T10:15:32;16.40;62.30
78619;DHT22;67941;52.506;5.470;2023-05-24T10:18:01;16.40;62.40
78619;DHT22;67941;52.506;5.470;2023-05-24T10:20:33;16.60;62.30
78619;DHT22;67941;52.506;5.470;2023-05-24T10:23:06;16.70;62.10
78619;DHT22;67941;52.506;5.470;2023-05-24T10:25:41;16.80;61.90
78619;DHT22;67941;52.506;5.470;2023-05-24T10:28:14;16.80;61.80
78619;DHT22;67941;52.506;5.470;2023-05-24T10:30:50;16.90;61.80
78619;DHT22;67941;52.506;5.470;2023-05-24T10:33:22;16.90;61.70
78619;DHT22;67941;52.506;5.470;2023-05-24T10:35:52;17.00;61.70
78619;DHT22;67941;52.506;5.470;2023-05-24T10:38:24;17.00;61.50
78619;DHT22;67941;52.506;5.470;2023-05-24T10:40:53;17.00;61.40
78619;DHT22;67941;52.506;5.470;2023-05-24T10:43:22;17.10;61.20
78619;DHT22;67941;52.506;5.470;2023-05-24T10:45:51;17.10;61.20
78619;DHT22;67941;52.506;5.470;2023-05-24T10:48:37;17.10;61.10
78619;DHT22;67941;52.506;5.470;2023-05-24T10:51:29;17.10;60.80
78619;DHT22;67941;52.506;5.470;2023-05-24T10:54:18;17.10;60.80
78619;DHT22;67941;52.506;5.470;2023-05-24T10:56:49;17.00;60.80
78619;DHT22;67941;52.506;5.470;2023-05-24T10:59:35;17.10;60.70
78619;DHT22;67941;52.506;5.470;2023-05-24T11:02:07;17.20;60.50
78619;DHT22;67941;52.506;5.470;2023-05-24T11:04:40;17.20;60.50
78619;DHT22;67941;52.506;5.470;2023-05-24T11:07:13;17.20;60.60
78619;DHT22;67941;52.506;5.470;2023-05-24T11:09:47;17.40;60.40
78619;DHT22;67941;52.506;5.470;2023-05-24T11:12:21;17.40;60.30
78619;DHT22;67941;52.506;5.470;2023-05-24T11:14:51;17.40;60.30
78619;DHT22;67941;52.506;5.470;2023-05-24T11:17:22;17.40;60.30
78619;DHT22;67941;52.506;5.470;2023-05-24T11:19:52;17.50;60.30
78619;DHT22;67941;52.506;5.470;2023-05-24T11:22:23;17.50;60.10
78619;DHT22;67941;52.506;5.470;2023-05-24T11:24:55;17.60;60.00
78619;DHT22;67941;52.506;5.470;2023-05-24T11:27:29;17.60;59.90
78619;DHT22;67941;52.506;5.470;2023-05-24T11:30:01;17.60;60.00
78619;DHT22;67941;52.506;5.470;2023-05-24T11:32:31;17.70;59.80
78619;DHT22;67941;52.506;5.470;2023-05-24T11:35:00;17.80;59.60
78619;DHT22;67941;52.506;5.470;2023-05-24T11:37:33;17.80;59.40
78619;DHT22;67941;52.506;5.470;2023-05-24T11:40:07;17.80;59.40
78619;DHT22;67941;52.506;5.470;2023-05-24T11:42:37;17.80;59.30
78619;DHT22;67941;52.506;5.470;2023-05-24T11:45:08;17.80;59.20
78619;DHT22;67941;52.506;5.470;2023-05-24T11:47:38;17.60;59.10
78619;DHT22;67941;52.506;5.470;2023-05-24T11:50:08;17.50;59.00
78619;DHT22;67941;52.506;5.470;2023-05-24T11:52:39;17.50;58.90
78619;DHT22;67941;52.506;5.470;2023-05-24T11:55:13;17.30;58.90
78619;DHT22;67941;52.506;5.470;2023-05-24T11:57:46;17.20;58.80
78619;DHT22;67941;52.506;5.470;2023-05-24T12:00:23;17.00;58.90
78619;DHT22;67941;52.506;5.470;2023-05-24T12:02:55;17.00;59.00
78619;DHT22;67941;52.506;5.470;2023-05-24T12:05:26;17.00;59.00
78619;DHT22;67941;52.506;5.470;2023-05-24T12:08:01;17.00;59.10
78619;DHT22;67941;52.506;5.470;2023-05-24T12:10:34;17.10;59.20
78619;DHT22;67941;52.506;5.470;2023-05-24T12:13:03;17.40;59.20
78619;DHT22;67941;52.506;5.470;2023-05-24T12:15:33;17.60;59.20
78619;DHT22;67941;52.506;5.470;2023-05-24T12:18:02;18.00;59.00
78619;DHT22;67941;52.506;5.470;2023-05-24T12:20:31;18.10;58.70
78619;DHT22;67941;52.506;5.470;2023-05-24T12:23:00;18.20;58.50
78619;DHT22;67941;52.506;5.470;2023-05-24T12:25:29;18.30;58.40
78619;DHT22;67941;52.506;5.470;2023-05-24T12:28:02;18.30;58.40
78619;DHT22;67941;52.506;5.470;2023-05-24T12:30:31;18.30;58.40
78619;DHT22;67941;52.506;5.470;2023-05-24T12:33:00;18.40;58.40
78619;DHT22;67941;52.506;5.470;2023-05-24T12:35:29;18.40;58.40
78619;DHT22;67941;52.506;5.470;2023-05-24T12:37:58;18.60;58.30
78619;DHT22;67941;52.506;5.470;2023-05-24T12:40:31;18.60;58.20
78619;DHT22;67941;52.506;5.470;2023-05-24T12:43:03;18.70;58.20
78619;DHT22;67941;52.506;5.470;2023-05-24T12:45:32;18.70;58.10
78619;DHT22;67941;52.506;5.470;2023-05-24T12:48:02;18.70;58.00
78619;DHT22;67941;52.506;5.470;2023-05-24T12:50:30;18.80;58.00
78619;DHT22;67941;52.506;5.470;2023-05-24T12:52:59;18.90;57.80
78619;DHT22;67941;52.506;5.470;2023-05-24T12:55:29;19.00;57.70
78619;DHT22;67941;52.506;5.470;2023-05-24T12:57:58;19.00;57.60
78619;DHT22;67941;52.506;5.470;2023-05-24T13:00:30;19.00;57.60
78619;DHT22;67941;52.506;5.470;2023-05-24T13:02:59;19.10;57.60
78619;DHT22;67941;52.506;5.470;2023-05-24T13:05:28;19.10;57.60
78619;DHT22;67941;52.506;5.470;2023-05-24T13:07:57;19.20;57.40
78619;DHT22;67941;52.506;5.470;2023-05-24T13:10:26;19.20;57.30
78619;DHT22;67941;52.506;5.470;2023-05-24T13:12:55;19.20;57.30
78619;DHT22;67941;52.506;5.470;2023-05-24T13:15:24;19.20;57.30
78619;DHT22;67941;52.506;5.470;2023-05-24T13:17:55;19.10;57.30
78619;DHT22;67941;52.506;5.470;2023-05-24T13:20:24;19.10;57.30
78619;DHT22;67941;52.506;5.470;2023-05-24T13:22:53;18.90;57.40
78619;DHT22;67941;52.506;5.470;2023-05-24T13:25:22;18.90;57.40
78619;DHT22;67941;52.506;5.470;2023-05-24T13:27:52;18.70;57.40
78619;DHT22;67941;52.506;5.470;2023-05-24T13:30:21;18.60;57.50
78619;DHT22;67941;52.506;5.470;2023-05-24T13:32:56;18.70;57.50
78619;DHT22;67941;52.506;5.470;2023-05-24T13:35:25;18.80;57.30
78619;DHT22;67941;52.506;5.470;2023-05-24T13:37:54;18.70;57.10
78619;DHT22;67941;52.506;5.470;2023-05-24T13:40:23;18.70;57.20
78619;DHT22;67941;52.506;5.470;2023-05-24T13:42:53;18.80;57.20
78619;DHT22;67941;52.506;5.470;2023-05-24T13:45:22;18.90;57.20
78619;DHT22;67941;52.506;5.470;2023-05-24T13:47:51;19.10;57.10
78619;DHT22;67941;52.506;5.470;2023-05-24T13:50:31;19.10;57.00
78619;DHT22;67941;52.506;5.470;2023-05-24T13:53:06;19.00;56.90
78619;DHT22;67941;52.506;5.470;2023-05-24T13:55:35;18.90;56.80
78619;DHT22;67941;52.506;5.470;2023-05-24T13:58:05;18.60;56.70
78619;DHT22;67941;52.506;5.470;2023-05-24T14:00:34;18.40;56.80
78619;DHT22;67941;52.506;5.470;2023-05-24T14:03:03;18.10;56.80
78619;DHT22;67941;52.506;5.470;2023-05-24T14:05:34;17.80;56.90
78619;DHT22;67941;52.506;5.470;2023-05-24T14:08:05;17.50;57.10
78619;DHT22;67941;52.506;5.470;2023-05-24T14:10:33;17.40;57.20
78619;DHT22;67941;52.506;5.470;2023-05-24T14:13:04;17.20;57.20
78619;DHT22;67941;52.506;5.470;2023-05-24T14:15:33;17.10;57.20
78619;DHT22;67941;52.506;5.470;2023-05-24T14:18:02;17.00;57.30
78619;DHT22;67941;52.506;5.470;2023-05-24T14:20:35;17.00;57.50
78619;DHT22;67941;52.506;5.470;2023-05-24T14:23:06;17.00;57.50
78619;DHT22;67941;52.506;5.470;2023-05-24T14:25:35;17.00;57.40
78619;DHT22;67941;52.506;5.470;2023-05-24T14:28:04;17.00;57.40
78619;DHT22;67941;52.506;5.470;2023-05-24T14:30:33;17.00;57.40
78619;DHT22;67941;52.506;5.470;2023-05-24T14:33:02;17.00;57.40
78619;DHT22;67941;52.506;5.470;2023-05-24T14:35:35;17.00;57.40
78619;DHT22;67941;52.506;5.470;2023-05-24T14:38:05;17.00;57.40
78619;DHT22;67941;52.506;5.470;2023-05-24T14:40:35;17.00;57.50
78619;DHT22;67941;52.506;5.470;2023-05-24T14:43:04;17.00;57.60
78619;DHT22;67941;52.506;5.470;2023-05-24T14:45:35;17.00;57.50
78619;DHT22;67941;52.506;5.470;2023-05-24T14:48:06;17.00;57.40
78619;DHT22;67941;52.506;5.470;2023-05-24T14:50:39;16.90;57.40
78619;DHT22;67941;52.506;5.470;2023-05-24T14:53:08;16.90;57.50
78619;DHT22;67941;52.506;5.470;2023-05-24T14:55:37;16.90;57.40
78619;DHT22;67941;52.506;5.470;2023-05-24T14:58:06;16.70;57.50
78619;DHT22;67941;52.506;5.470;2023-05-24T15:00:36;16.70;57.60
78619;DHT22;67941;52.506;5.470;2023-05-24T15:03:06;16.70;57.60
78619;DHT22;67941;52.506;5.470;2023-05-24T15:05:39;16.70;57.60
78619;DHT22;67941;52.506;5.470;2023-05-24T15:08:09;16.50;57.70
78619;DHT22;67941;52.506;5.470;2023-05-24T15:10:38;16.50;57.70
78619;DHT22;67941;52.506;5.470;2023-05-24T15:13:09;16.50;57.80
78619;DHT22;67941;52.506;5.470;2023-05-24T15:15:38;16.50;57.80
78619;DHT22;67941;52.506;5.470;2023-05-24T15:18:07;16.50;57.80
78619;DHT22;67941;52.506;5.470;2023-05-24T15:20:38;16.50;57.80
78619;DHT22;67941;52.506;5.470;2023-05-24T15:23:07;16.50;57.80
78619;DHT22;67941;52.506;5.470;2023-05-24T15:25:36;16.50;57.80
78619;DHT22;67941;52.506;5.470;2023-05-24T15:28:05;16.50;57.80
78619;DHT22;67941;52.506;5.470;2023-05-24T15:30:35;16.50;57.80
78619;DHT22;67941;52.506;5.470;2023-05-24T15:33:04;16.50;57.90
78619;DHT22;67941;52.506;5.470;2023-05-24T15:35:33;16.50;58.00
78619;DHT22;67941;52.506;5.470;2023-05-24T15:38:05;16.60;57.90
78619;DHT22;67941;52.506;5.470;2023-05-24T15:40:34;16.60;57.90
78619;DHT22;67941;52.506;5.470;2023-05-24T15:43:03;16.70;58.00
78619;DHT22;67941;52.506;5.470;2023-05-24T15:45:32;16.70;57.90
78619;DHT22;67941;52.506;5.470;2023-05-24T15:48:01;16.70;58.00
78619;DHT22;67941;52.506;5.470;2023-05-24T15:50:30;16.70;58.00
78619;DHT22;67941;52.506;5.470;2023-05-24T15:52:59;16.70;57.90
78619;DHT22;67941;52.506;5.470;2023-05-24T15:55:31;16.60;58.00
78619;DHT22;67941;52.506;5.470;2023-05-24T15:58:02;16.60;58.00